Time;durP1;ratioP1;P1;durP2;ratioP2;P2;SDS_P1;SDS_P2;PMS_P1;PMS_P2;Temp;Humidity;BMP_temperature;BMP_pressure;BME280_temperature;BME280_humidity;BME280_pressure;Samples;Min_cycle;Max_cycle;Signal;HPM_P1;HPM_P2
2023/06/13 00:01:56;;;;;;;4.07;3.60;;;;;;;21.65;41.34;101239.44;4991074;28;20023;-62
2023/06/13 00:04:23;;;;;;;3.08;2.83;;;;;;;21.57;40.47;101231.59;4990889;28;20030;-63
2023/06/13 00:06:49;;;;;;;5.00;3.13;;;;;;;21.50;40.44;101235.16;4991223;28;20100;-63
2023/06/13 00:09:17;;;;;;;6.50;3.17;;;;;;;21.39;41.04;101239.66;4990890;28;20026;-63
2023/06/13 00:11:43;;;;;;;5.20;3.35;;;;;;;21.30;40.88;101233.53;4991111;28;20100;-63
2023/06/13 00:14:10;;;;;;;4.47;3.33;;;;;;;21.25;41.59;101235.34;4990849;28;20027;-62
2023/06/13 00:16:36;;;;;;;4.75;3.70;;;;;;;21.21;41.27;101225.69;4991190;28;20026;-62
2023/06/13 00:19:03;;;;;;;6.63;3.53;;;;;;;21.15;41.65;101234.53;4990863;28;20411;-62
2023/06/13 00:21:28;;;;;;;3.75;3.45;;;;;;;21.09;41.19;101226.66;4991206;28;20054;-62
2023/06/13 00:23:53;;;;;;;4.78;3.80;;;;;;;21.02;41.10;101228.44;4990693;28;20447;-63
2023/06/13 00:26:19;;;;;;;4.43;3.47;;;;;;;20.99;42.09;101228.47;4990681;28;20030;-61
2023/06/13 00:28:44;;;;;;;3.17;2.88;;;;;;;20.93;41.95;101223.19;4990712;28;20034;-63
2023/06/13 00:31:10;;;;;;;4.28;3.80;;;;;;;20.90;42.31;101234.63;4990659;28;20033;-62
2023/06/13 00:33:37;;;;;;;3.30;3.00;;;;;;;20.81;42.69;101222.41;4991102;28;20374;-63
2023/06/13 00:36:03;;;;;;;5.68;3.42;;;;;;;20.74;43.97;101225.94;4990427;28;20061;-62
2023/06/13 00:38:29;;;;;;;3.58;3.28;;;;;;;20.68;44.50;101226.84;4990240;28;20031;-63
2023/06/13 00:40:54;;;;;;;4.13;3.72;;;;;;;20.56;43.08;101219.84;4990702;28;20386;-62
2023/06/13 00:43:19;;;;;;;3.95;3.63;;;;;;;20.50;44.32;101225.13;4990724;28;20030;-62
2023/06/13 00:45:45;;;;;;;4.82;3.78;;;;;;;20.41;44.50;101218.16;4990155;28;20026;-62
2023/06/13 00:48:11;;;;;;;5.60;3.85;;;;;;;20.34;44.69;101225.19;4990551;28;20068;-62
2023/06/13 00:50:43;;;;;;;3.92;3.42;;;;;;;20.26;44.65;101226.97;4990634;28;20023;-62
2023/06/13 00:53:11;;;;;;;7.78;4.00;;;;;;;20.20;44.95;101226.97;4990113;28;20022;-62
2023/06/13 00:55:37;;;;;;;4.13;3.75;;;;;;;20.12;44.98;101214.72;4990515;28;20050;-62
2023/06/13 00:58:10;;;;;;;6.32;3.60;;;;;;;20.08;45.18;101215.59;4990011;28;20033;-62
2023/06/13 01:00:39;;;;;;;4.57;3.83;;;;;;;20.00;45.55;101218.19;4990350;28;20526;-62
2023/06/13 01:03:14;;;;;;;6.25;3.88;;;;;;;19.94;45.18;101214.72;4989977;28;20026;-62
2023/06/13 01:05:40;;;;;;;5.40;3.38;;;;;;;19.86;45.27;101214.75;4990363;28;20029;-62
2023/06/13 01:08:12;;;;;;;5.18;3.80;;;;;;;19.83;46.72;101212.97;4989773;28;20406;-63
2023/06/13 01:10:40;;;;;;;3.55;3.25;;;;;;;19.76;47.47;101208.59;4989764;28;20036;-63
2023/06/13 01:13:31;;;;;;;4.85;3.60;;;;;;;19.66;47.17;101205.97;4990036;28;20430;-63
2023/06/13 01:16:08;;;;;;;4.35;3.95;;;;;;;19.62;46.84;101214.75;4989802;28;20046;-62
2023/06/13 01:18:35;;;;;;;6.65;3.80;;;;;;;19.58;46.78;101212.97;4989769;28;20056;-62
2023/06/13 01:21:04;;;;;;;5.90;4.45;;;;;;;19.52;48.23;101205.06;4989747;28;20076;-62
2023/06/13 01:23:42;;;;;;;4.95;3.65;;;;;;;19.44;47.74;101216.50;4989438;28;20026;-62
2023/06/13 01:26:25;;;;;;;5.30;4.68;;;;;;;19.38;48.86;101213.84;4989772;28;20038;-62
2023/06/13 01:28:51;;;;;;;4.57;4.13;;;;;;;19.33;49.52;101207.72;4989711;28;20528;-62
2023/06/13 01:31:20;;;;;;;6.40;3.90;;;;;;;19.23;50.54;101219.09;4989750;28;20478;-62
2023/06/13 01:33:47;;;;;;;5.15;3.63;;;;;;;19.13;50.65;101216.44;4989644;28;20026;-62
2023/06/13 01:36:13;;;;;;;4.60;4.07;;;;;;;19.03;50.97;101217.25;4989274;28;20066;-61
2023/06/13 01:38:39;;;;;;;7.20;3.55;;;;;;;18.95;50.85;101218.09;4989482;28;20085;-62
2023/06/13 01:41:04;;;;;;;5.28;3.78;;;;;;;18.86;51.92;101218.06;4989527;28;20057;-62
2023/06/13 01:43:30;;;;;;;4.13;3.25;;;;;;;18.80;51.94;101210.16;4989606;28;20026;-62
2023/06/13 01:46:13;;;;;;;4.28;3.88;;;;;;;18.72;54.13;101213.66;4989699;28;20105;-62
2023/06/13 01:48:54;;;;;;;5.93;3.70;;;;;;;18.66;53.37;101216.25;4989929;28;20026;-62
2023/06/13 01:51:44;;;;;;;4.95;3.38;;;;;;;18.61;52.71;101210.09;4989255;28;20030;-62
2023/06/13 01:54:17;;;;;;;4.70;4.15;;;;;;;18.57;52.18;101216.19;4989022;28;20062;-62
2023/06/13 01:56:44;;;;;;;6.68;3.95;;;;;;;18.55;52.89;101212.69;4989221;28;20161;-62
2023/06/13 01:59:13;;;;;;;3.95;3.28;;;;;;;18.52;52.85;101210.06;4989372;28;20441;-62
2023/06/13 02:01:39;;;;;;;4.15;3.50;;;;;;;18.47;53.91;101200.41;4988754;28;20022;-62
2023/06/13 02:04:05;;;;;;;6.07;3.63;;;;;;;18.43;52.95;101203.91;4988347;28;20026;-62
2023/06/13 02:06:32;;;;;;;7.35;3.78;;;;;;;18.40;54.10;101203.00;4989116;28;20041;-62
2023/06/13 02:08:57;;;;;;;4.45;3.40;;;;;;;18.33;54.34;101205.59;4989554;28;20474;-62
2023/06/13 02:11:23;;;;;;;5.72;3.67;;;;;;;18.28;54.33;101204.69;4988982;28;20168;-62
2023/06/13 02:13:49;;;;;;;4.63;3.63;;;;;;;18.22;54.57;101200.28;4988714;28;20394;-62
2023/06/13 02:16:17;;;;;;;5.13;3.58;;;;;;;18.20;54.48;101204.66;4988977;28;20034;-61
2023/06/13 02:18:43;;;;;;;8.63;3.92;;;;;;;18.14;55.33;101202.00;4989020;28;20030;-61
2023/06/13 02:21:08;;;;;;;4.78;3.58;;;;;;;18.09;55.24;101203.69;4988735;28;20474;-62
2023/06/13 02:23:34;;;;;;;5.65;4.00;;;;;;;18.05;54.79;101204.50;4989238;28;20036;-62
2023/06/13 02:25:59;;;;;;;6.50;4.20;;;;;;;17.99;56.50;101201.00;4988892;28;20029;-62
2023/06/13 02:28:24;;;;;;;5.07;3.80;;;;;;;17.93;56.92;101200.97;4988838;28;20073;-62
2023/06/13 02:30:50;;;;;;;4.65;4.13;;;;;;;17.87;57.80;101209.66;4988774;28;20085;-61
2023/06/13 02:33:15;;;;;;;4.45;3.78;;;;;;;17.84;56.38;101198.28;4989298;28;20485;-62
2023/06/13 02:35:42;;;;;;;5.57;4.13;;;;;;;17.80;56.17;101194.75;4988767;28;20054;-62
2023/06/13 02:38:07;;;;;;;4.40;4.00;;;;;;;17.77;57.83;101202.59;4988414;28;20061;-62
2023/06/13 02:40:36;;;;;;;5.10;4.05;;;;;;;17.70;58.53;101204.25;4988995;28;20022;-60
2023/06/13 02:43:02;;;;;;;5.75;4.20;;;;;;;17.66;59.14;101209.47;4988631;28;20074;-62
2023/06/13 02:45:27;;;;;;;4.90;4.35;;;;;;;17.60;58.59;101207.69;4988665;28;20015;-62
2023/06/13 02:47:53;;;;;;;6.05;3.65;;;;;;;17.55;60.11;101206.75;4988332;28;20390;-62
2023/06/13 02:50:18;;;;;;;4.47;3.60;;;;;;;17.48;59.94;101214.59;4988744;28;20262;-62
2023/06/13 02:52:43;;;;;;;4.72;3.90;;;;;;;17.41;60.70;101204.91;4988460;28;20034;-61
2023/06/13 02:55:10;;;;;;;8.48;4.57;;;;;;;17.36;61.07;101207.47;4988549;28;20357;-62
2023/06/13 02:57:39;;;;;;;5.57;4.15;;;;;;;17.32;61.66;101210.94;4988595;28;20378;-62
2023/06/13 03:00:07;;;;;;;5.55;3.72;;;;;;;17.28;62.07;101210.03;4987653;28;20026;-62
2023/06/13 03:02:32;;;;;;;5.90;4.38;;;;;;;17.26;62.29;101208.25;4988676;28;20026;-62
2023/06/13 03:04:58;;;;;;;4.65;3.75;;;;;;;17.28;60.68;101209.16;4988685;28;20352;-62
2023/06/13 03:07:23;;;;;;;5.88;4.32;;;;;;;17.27;61.66;101208.25;4987331;28;20431;-60
2023/06/13 03:09:49;;;;;;;5.70;4.55;;;;;;;17.31;61.27;101205.66;4987024;28;20023;-62
2023/06/13 03:12:14;;;;;;;7.85;4.68;;;;;;;17.35;60.21;101207.47;4987150;28;20030;-62
2023/06/13 03:14:39;;;;;;;7.70;4.45;;;;;;;17.36;61.16;101211.84;4987000;28;20022;-62
2023/06/13 03:17:06;;;;;;;6.97;5.32;;;;;;;17.36;61.52;101201.38;4989329;28;20049;-62
2023/06/13 03:19:32;;;;;;;11.48;4.97;;;;;;;17.34;61.79;101205.72;4989575;28;20497;-61
2023/06/13 03:21:57;;;;;;;7.05;4.68;;;;;;;17.31;60.93;101198.69;4990043;28;20109;-62
2023/06/13 03:24:22;;;;;;;5.47;4.70;;;;;;;17.33;61.35;101203.94;4989675;28;20025;-60
2023/06/13 03:26:47;;;;;;;6.47;4.35;;;;;;;17.32;62.61;101205.69;4990673;28;20030;-62
2023/06/13 03:29:13;;;;;;;7.88;4.80;;;;;;;17.28;62.04;101204.78;4990936;28;20470;-62
2023/06/13 03:31:38;;;;;;;7.35;4.28;;;;;;;17.22;62.76;101199.47;4991943;28;20026;-60
2023/06/13 03:34:05;;;;;;;4.78;4.30;;;;;;;17.20;63.14;101200.34;4991635;28;20030;-61
2023/06/13 03:36:33;;;;;;;5.13;4.22;;;;;;;17.16;63.32;101197.66;4991658;28;20062;-62
2023/06/13 03:38:58;;;;;;;6.43;4.60;;;;;;;17.13;64.47;101197.66;4990847;28;20045;-61
2023/06/13 03:41:25;;;;;;;5.60;4.80;;;;;;;17.09;63.83;101198.44;4991236;28;20475;-62
2023/06/13 03:43:50;;;;;;;5.60;4.78;;;;;;;17.09;63.25;101197.59;4991326;28;20118;-62
2023/06/13 03:46:15;;;;;;;4.95;4.55;;;;;;;17.08;62.48;101193.19;4991302;28;20109;-62
2023/06/13 03:48:41;;;;;;;5.20;4.47;;;;;;;17.07;63.30;101196.69;4991980;28;20093;-61
2023/06/13 03:51:06;;;;;;;6.40;4.55;;;;;;;17.03;64.48;101198.38;4991051;28;20428;-61
2023/06/13 03:53:31;;;;;;;4.88;4.47;;;;;;;16.99;65.26;101193.97;4991527;28;20030;-62
2023/06/13 03:55:56;;;;;;;5.90;5.03;;;;;;;16.97;65.10;101193.97;4991369;28;20026;-62
2023/06/13 03:58:22;;;;;;;5.68;4.90;;;;;;;16.96;66.97;101202.69;4991424;28;20445;-62
2023/06/13 04:00:47;;;;;;;5.20;4.70;;;;;;;16.91;66.59;101199.09;4991022;28;20037;-61
2023/06/13 04:03:13;;;;;;;8.07;4.38;;;;;;;16.87;65.63;101202.56;4991507;28;20054;-62
2023/06/13 04:05:38;;;;;;;9.18;4.70;;;;;;;16.84;65.41;101205.16;4991439;28;20428;-61
2023/06/13 04:08:06;;;;;;;7.90;4.40;;;;;;;16.84;63.73;101198.16;4991184;28;20026;-60
2023/06/13 04:10:31;;;;;;;5.32;4.82;;;;;;;16.87;66.82;101202.56;4990605;28;20030;-61
2023/06/13 04:12:56;;;;;;;6.25;4.72;;;;;;;16.87;66.90;101200.84;4991251;28;20082;-61
2023/06/13 04:15:22;;;;;;;4.90;4.40;;;;;;;16.89;66.75;101200.84;4990914;28;20030;-61
2023/06/13 04:17:48;;;;;;;6.72;4.95;;;;;;;16.92;68.61;101203.50;4990966;28;20034;-62
2023/06/13 04:20:14;;;;;;;6.78;5.00;;;;;;;16.93;64.40;101203.50;4990703;28;20117;-62
2023/06/13 04:22:42;;;;;;;7.57;5.53;;;;;;;16.99;64.22;101205.31;4991102;28;20033;-62
2023/06/13 04:25:07;;;;;;;6.65;4.75;;;;;;;17.04;67.39;101208.88;4991021;28;20133;-61
2023/06/13 04:27:34;;;;;;;5.38;4.88;;;;;;;17.08;65.81;101216.75;4990371;28;20117;-62
2023/06/13 04:30:00;;;;;;;8.57;5.45;;;;;;;17.12;65.07;101213.34;4991198;28;20077;-62
2023/06/13 04:32:28;;;;;;;6.20;5.50;;;;;;;17.18;65.31;101223.00;4990803;28;20038;-61
2023/06/13 04:34:55;;;;;;;5.90;5.30;;;;;;;17.21;63.46;101220.41;4990391;28;20058;-61
2023/06/13 04:37:25;;;;;;;6.75;4.95;;;;;;;17.24;62.86;101223.94;4990459;28;20038;-62
2023/06/13 04:39:51;;;;;;;7.10;5.32;;;;;;;17.28;62.69;101223.13;4990801;28;20058;-62
2023/06/13 04:42:24;;;;;;;6.82;5.68;;;;;;;17.31;62.35;101224.88;4990833;28;20080;-62
2023/06/13 04:44:52;;;;;;;7.18;5.70;;;;;;;17.36;62.51;101228.41;4990320;28;20025;-62
2023/06/13 04:47:18;;;;;;;7.22;5.80;;;;;;;17.42;62.01;101222.38;4990383;28;20098;-62
2023/06/13 04:49:45;;;;;;;9.60;5.95;;;;;;;17.46;62.47;101218.94;4989013;28;20454;-62
2023/06/13 04:52:14;;;;;;;5.88;5.38;;;;;;;17.53;62.36;101219.84;4989976;28;20050;-62
2023/06/13 04:54:40;;;;;;;6.40;5.80;;;;;;;17.58;61.97;101222.50;4990159;28;20034;-62
2023/06/13 04:57:05;;;;;;;6.47;5.70;;;;;;;17.62;62.70;101222.56;4989915;28;20026;-61
2023/06/13 04:59:31;;;;;;;8.32;5.78;;;;;;;17.65;61.50;101224.31;4990238;28;20022;-62
2023/06/13 05:01:56;;;;;;;10.30;7.10;;;;;;;17.70;61.39;101235.72;4990490;28;20080;-62
2023/06/13 05:04:21;;;;;;;7.00;6.30;;;;;;;17.74;61.01;101234.00;4990298;28;20361;-62
2023/06/13 05:06:46;;;;;;;6.45;5.88;;;;;;;17.77;61.26;101234.03;4990219;28;20037;-62
2023/06/13 05:09:13;;;;;;;7.55;6.00;;;;;;;17.81;61.48;101240.19;4989881;28;20072;-61
2023/06/13 05:11:39;;;;;;;6.85;5.93;;;;;;;17.88;60.43;101242.00;4990393;28;20076;-62
2023/06/13 05:14:05;;;;;;;6.43;5.75;;;;;;;17.93;60.50;101237.66;4990008;28;20482;-62
2023/06/13 05:16:30;;;;;;;6.93;6.22;;;;;;;18.01;60.16;101242.94;4989954;28;20372;-62
2023/06/13 05:19:00;;;;;;;6.60;6.00;;;;;;;18.06;60.65;101241.22;4989581;28;20030;-62
2023/06/13 05:21:26;;;;;;;8.18;5.88;;;;;;;18.15;60.74;101240.44;4989860;28;20407;-62
2023/06/13 05:23:51;;;;;;;9.05;6.05;;;;;;;18.24;59.85;101240.50;4990027;28;20489;-62
2023/06/13 05:26:17;;;;;;;7.95;5.35;;;;;;;18.33;59.10;101237.06;4989785;28;20030;-62
2023/06/13 05:28:42;;;;;;;7.10;6.15;;;;;;;18.41;59.84;101245.00;4989376;28;20101;-62
2023/06/13 05:31:07;;;;;;;8.00;5.90;;;;;;;18.47;59.13;101245.00;4989740;28;20317;-62
2023/06/13 05:33:33;;;;;;;5.85;5.30;;;;;;;18.57;58.65;101248.56;4989733;28;20025;-61
2023/06/13 05:35:58;;;;;;;7.75;5.55;;;;;;;18.62;58.21;101245.97;4989332;28;20054;-62
2023/06/13 05:38:24;;;;;;;6.72;5.65;;;;;;;18.65;58.13;101240.75;4988703;28;20065;-62
2023/06/13 05:40:50;;;;;;;7.10;6.07;;;;;;;18.72;58.10;101244.28;4989600;28;20356;-61
2023/06/13 05:43:19;;;;;;;6.65;5.97;;;;;;;18.78;57.60;101246.91;4989598;28;20030;-62
2023/06/13 05:45:44;;;;;;;6.30;5.45;;;;;;;18.87;58.00;101240.81;4981874;28;20030;-62
2023/06/13 05:48:10;;;;;;;6.55;5.60;;;;;;;18.94;57.47;101245.22;4989442;28;20030;-61
2023/06/13 05:50:35;;;;;;;6.63;5.60;;;;;;;19.05;56.89;101249.66;4989655;28;20014;-62
2023/06/13 05:53:00;;;;;;;6.18;5.57;;;;;;;19.13;57.08;101247.06;4989017;28;20114;-61
2023/06/13 05:55:25;;;;;;;6.68;5.97;;;;;;;19.20;56.96;101244.47;4989298;28;20088;-62
2023/06/13 05:57:51;;;;;;;6.28;5.68;;;;;;;19.29;55.87;101247.97;4989074;28;20030;-62
2023/06/13 06:00:17;;;;;;;7.88;5.95;;;;;;;19.36;55.73;101249.75;4989118;28;20092;-62
2023/06/13 06:02:46;;;;;;;7.70;5.55;;;;;;;19.43;56.14;101251.50;4988821;28;20022;-61
2023/06/13 06:05:13;;;;;;;6.47;5.22;;;;;;;19.54;55.71;101248.00;4986076;28;20034;-62
2023/06/13 06:07:39;;;;;;;5.50;5.00;;;;;;;19.61;54.75;101244.50;4989359;28;20046;-62
2023/06/13 06:10:05;;;;;;;6.13;5.50;;;;;;;19.68;55.21;101255.91;4988722;28;20027;-62
2023/06/13 06:12:31;;;;;;;6.93;6.25;;;;;;;19.75;55.00;101256.81;4989149;28;20034;-62
2023/06/13 06:14:56;;;;;;;7.20;5.38;;;;;;;19.83;55.81;101244.53;4989276;28;20080;-61
2023/06/13 06:17:21;;;;;;;8.95;5.78;;;;;;;19.89;54.76;101255.06;4987878;28;20084;-61
2023/06/13 06:19:47;;;;;;;8.45;5.30;;;;;;;20.00;55.73;101251.53;4987268;28;20418;-62
2023/06/13 06:22:13;;;;;;;7.90;5.53;;;;;;;20.12;54.47;101250.66;4987737;28;20489;-61
2023/06/13 06:24:38;;;;;;;6.13;5.53;;;;;;;20.22;54.22;101249.75;4987244;28;20073;-61
2023/06/13 06:27:05;;;;;;;9.27;6.15;;;;;;;20.33;53.82;101246.25;4987602;28;20026;-62
2023/06/13 06:29:31;;;;;;;6.22;5.60;;;;;;;20.44;53.95;101251.47;4986520;28;20563;-61
2023/06/13 06:31:56;;;;;;;6.65;5.05;;;;;;;20.56;54.68;101246.16;4987848;28;20026;-63
2023/06/13 06:34:21;;;;;;;5.32;4.82;;;;;;;20.68;54.73;101249.63;4988865;28;20034;-62
2023/06/13 06:36:47;;;;;;;6.53;5.38;;;;;;;20.79;53.44;101252.22;4988329;28;20062;-62
2023/06/13 06:39:13;;;;;;;6.72;4.88;;;;;;;20.85;53.16;101247.81;4988995;28;20081;-62
2023/06/13 06:41:38;;;;;;;7.32;5.63;;;;;;;20.95;52.97;101255.72;4989093;28;20026;-62
2023/06/13 06:44:04;;;;;;;6.00;5.03;;;;;;;21.09;53.10;101256.50;4988517;28;20113;-62
2023/06/13 06:46:29;;;;;;;5.97;4.90;;;;;;;21.21;52.15;101249.41;4989025;28;20381;-63
2023/06/13 06:48:54;;;;;;;5.80;5.20;;;;;;;21.29;52.19;101252.88;4989322;28;20023;-62
2023/06/13 06:51:20;;;;;;;5.25;4.75;;;;;;;21.39;50.92;101248.41;4991105;28;20418;-62
2023/06/13 06:53:45;;;;;;;6.53;5.57;;;;;;;21.48;51.35;101252.75;4992003;28;20084;-63
2023/06/13 06:56:10;;;;;;;7.32;5.90;;;;;;;21.60;50.16;101246.53;4992645;28;20486;-63
2023/06/13 06:58:36;;;;;;;8.45;5.93;;;;;;;21.69;50.28;101246.47;4992779;28;20022;-62
2023/06/13 07:01:02;;;;;;;7.45;5.13;;;;;;;21.80;49.97;101249.00;4993172;28;20026;-62
2023/06/13 07:03:27;;;;;;;5.70;5.03;;;;;;;21.90;50.61;101244.53;4992636;28;20537;-62
2023/06/13 07:05:52;;;;;;;6.75;5.20;;;;;;;21.98;48.92;101244.47;4992494;28;20370;-62
2023/06/13 07:08:18;;;;;;;6.32;4.70;;;;;;;22.09;49.22;101251.41;4992541;28;20026;-62
2023/06/13 07:10:43;;;;;;;5.82;5.22;;;;;;;22.22;49.23;101250.38;4992509;28;20037;-62
2023/06/13 07:13:08;;;;;;;8.25;4.97;;;;;;;22.33;48.70;101245.00;4992608;28;20356;-62
2023/06/13 07:15:34;;;;;;;6.82;4.80;;;;;;;22.42;47.70;101254.56;4992381;28;20088;-62
2023/06/13 07:17:59;;;;;;;6.40;4.82;;;;;;;22.54;48.30;101257.06;4992008;28;20033;-62
2023/06/13 07:20:26;;;;;;;7.55;4.80;;;;;;;22.61;47.46;101257.00;4992353;28;20026;-62
2023/06/13 07:22:51;;;;;;;6.07;5.10;;;;;;;22.73;48.52;101262.19;4992134;28;20074;-62
2023/06/13 07:25:17;;;;;;;11.18;6.05;;;;;;;22.82;45.95;101260.28;4992168;28;20502;-62
2023/06/13 07:27:42;;;;;;;6.90;4.70;;;;;;;22.90;47.28;101253.16;4992052;28;20192;-62
2023/06/13 07:30:08;;;;;;;6.35;5.18;;;;;;;22.89;45.57;101256.69;4991790;28;20034;-62
2023/06/13 07:32:34;;;;;;;5.80;4.93;;;;;;;23.04;46.18;101260.91;4992156;28;20133;-62
2023/06/13 07:34:59;;;;;;;5.07;4.20;;;;;;;23.19;46.66;101254.50;4991752;28;20475;-62
2023/06/13 07:37:24;;;;;;;6.97;5.25;;;;;;;23.28;45.96;101258.78;4991137;28;20020;-62
2023/06/13 07:39:50;;;;;;;7.95;5.30;;;;;;;23.42;47.89;101260.41;4992038;28;20023;-63
2023/06/13 07:42:15;;;;;;;7.25;4.88;;;;;;;23.57;46.03;101252.22;4991965;28;20030;-63
2023/06/13 07:44:41;;;;;;;6.13;4.22;;;;;;;23.71;45.64;101253.78;4992034;28;20022;-63
2023/06/13 07:47:07;;;;;;;5.40;4.90;;;;;;;23.78;43.30;101259.81;4991629;28;20054;-62
2023/06/13 07:49:32;;;;;;;6.30;4.57;;;;;;;23.76;43.44;101251.91;4991753;28;20494;-62
2023/06/13 07:51:57;;;;;;;8.10;4.70;;;;;;;23.85;44.41;101253.53;4991121;28;20531;-62
2023/06/13 07:54:23;;;;;;;5.78;4.35;;;;;;;24.06;44.13;101254.03;4991146;28;20125;-63
2023/06/13 07:56:49;;;;;;;6.70;4.45;;;;;;;24.20;43.70;101253.81;4991693;28;20034;-63
2023/06/13 07:59:15;;;;;;;9.50;4.60;;;;;;;24.19;42.32;101250.31;4991841;28;20030;-63
2023/06/13 08:01:40;;;;;;;4.88;4.40;;;;;;;24.30;43.46;101249.22;4990553;28;20706;-62
2023/06/13 08:04:06;;;;;;;6.00;4.75;;;;;;;24.46;43.19;101255.09;4990745;28;20026;-63
2023/06/13 08:06:32;;;;;;;8.57;5.22;;;;;;;24.59;42.65;101256.56;4991407;28;20057;-63
2023/06/13 08:08:57;;;;;;;5.57;4.32;;;;;;;24.81;42.93;101265.84;4990836;28;20026;-63
2023/06/13 08:11:23;;;;;;;6.65;5.15;;;;;;;24.92;40.77;101261.22;4991166;28;20382;-63
2023/06/13 08:13:48;;;;;;;6.03;4.45;;;;;;;25.08;42.04;101255.56;4991300;28;20053;-63
2023/06/13 08:16:13;;;;;;;5.88;4.45;;;;;;;25.20;41.27;101259.75;4991265;28;20502;-63
2023/06/13 08:18:39;;;;;;;10.45;5.22;;;;;;;25.22;40.50;101260.56;4991077;28;20037;-63
2023/06/13 08:21:04;;;;;;;7.57;5.22;;;;;;;25.21;39.87;101256.19;4991013;28;20026;-63
2023/06/13 08:23:29;;;;;;;4.88;4.47;;;;;;;25.32;40.55;101260.34;4991238;28;20391;-63
2023/06/13 08:25:55;;;;;;;8.77;4.85;;;;;;;25.33;40.04;101252.34;4991050;28;20509;-63
2023/06/13 08:28:20;;;;;;;8.57;4.80;;;;;;;25.36;40.33;101252.31;4991174;28;20030;-63
2023/06/13 08:30:46;;;;;;;9.07;4.88;;;;;;;25.41;40.33;101250.41;4990933;28;20026;-63
2023/06/13 08:33:12;;;;;;;5.85;4.45;;;;;;;25.60;40.61;101252.59;4990946;28;20022;-63
2023/06/13 08:35:37;;;;;;;7.53;4.70;;;;;;;25.70;39.77;101244.44;4990322;28;20044;-62
2023/06/13 08:38:03;;;;;;;5.65;4.78;;;;;;;25.74;39.59;101246.97;4990427;28;20117;-63
2023/06/13 08:40:28;;;;;;;4.88;4.45;;;;;;;25.89;38.91;101250.13;4990120;28;20065;-63
2023/06/13 08:42:53;;;;;;;7.45;4.85;;;;;;;25.95;38.38;101250.00;4990586;28;20044;-63
2023/06/13 08:45:19;;;;;;;6.63;5.32;;;;;;;26.10;39.05;101247.84;4988990;28;20046;-63
2023/06/13 08:47:47;;;;;;;8.10;4.95;;;;;;;26.24;37.66;101237.72;4989613;28;20054;-63
2023/06/13 08:50:18;;;;;;;7.22;4.13;;;;;;;26.39;38.10;101243.50;4990549;28;20045;-63
2023/06/13 08:52:46;;;;;;;6.78;5.00;;;;;;;26.43;36.90;101233.66;4990110;28;20120;-63
2023/06/13 08:55:20;;;;;;;6.78;5.22;;;;;;;26.47;36.92;101238.00;4990344;28;20041;-62
2023/06/13 08:57:52;;;;;;;5.97;4.55;;;;;;;26.60;36.78;101236.72;4990220;28;20029;-63
2023/06/13 09:00:18;;;;;;;7.47;4.93;;;;;;;26.65;36.73;101233.91;4990511;28;20030;-63
2023/06/13 09:02:46;;;;;;;6.22;4.78;;;;;;;26.64;35.87;101231.31;4989668;28;20054;-63
2023/06/13 09:05:16;;;;;;;5.25;3.95;;;;;;;26.80;37.00;101232.59;4990140;28;20030;-63
2023/06/13 09:07:42;;;;;;;;;;;;;;;26.89;35.87;101218.16;4990733;28;20116;-63
2023/06/13 09:10:10;;;;;;;5.07;4.10;;;;;;;27.03;35.83;101228.34;4990653;28;20289;-63
2023/06/13 09:12:36;;;;;;;8.90;4.35;;;;;;;27.07;35.21;101221.19;4989849;28;20441;-63
2023/06/13 09:15:02;;;;;;;5.75;4.53;;;;;;;27.15;35.63;101231.56;4989800;28;20517;-63
2023/06/13 09:17:28;;;;;;;7.22;4.53;;;;;;;27.14;35.06;101220.06;4990115;28;20522;-63
2023/06/13 09:19:53;;;;;;;5.10;4.45;;;;;;;27.30;34.74;101231.09;4989837;28;20125;-64
2023/06/13 09:22:19;;;;;;;6.97;4.43;;;;;;;27.31;35.17;101229.28;4990142;28;20022;-63
2023/06/13 09:24:45;;;;;;;5.43;4.40;;;;;;;27.31;35.73;101226.59;4989504;28;20022;-63
2023/06/13 09:27:11;;;;;;;7.00;4.55;;;;;;;27.34;34.46;101229.19;4989857;28;20026;-63
2023/06/13 09:29:36;;;;;;;5.35;4.40;;;;;;;27.40;34.28;101225.47;4989890;28;20034;-63
2023/06/13 09:32:03;;;;;;;5.10;4.25;;;;;;;27.46;35.46;101225.25;4989280;28;20049;-63
2023/06/13 09:34:29;;;;;;;4.75;4.35;;;;;;;27.54;33.40;101228.50;4990151;28;20467;-63
2023/06/13 09:36:56;;;;;;;7.15;4.18;;;;;;;27.69;34.47;101219.16;4990085;28;20093;-63
2023/06/13 09:39:22;;;;;;;6.38;4.22;;;;;;;27.79;33.81;101217.03;4989992;28;20030;-63
2023/06/13 09:41:52;;;;;;;5.28;3.70;;;;;;;27.93;32.57;101216.59;4989873;28;20056;-63
2023/06/13 09:44:18;;;;;;;4.82;4.00;;;;;;;28.12;33.55;101212.38;4989744;28;20172;-64
2023/06/13 09:46:43;;;;;;;4.90;3.72;;;;;;;28.31;34.34;101215.25;4989121;28;20081;-63
2023/06/13 09:49:08;;;;;;;7.40;3.80;;;;;;;28.28;32.13;101218.88;4989735;28;20061;-63
2023/06/13 09:51:34;;;;;;;5.97;4.45;;;;;;;28.33;32.32;101221.38;4989491;28;20125;-64
2023/06/13 09:54:03;;;;;;;4.75;4.35;;;;;;;28.21;31.54;101212.03;4988996;28;20030;-63
2023/06/13 09:56:28;;;;;;;5.13;4.25;;;;;;;28.28;31.67;101216.22;4989548;28;20026;-63
2023/06/13 09:58:53;;;;;;;5.30;3.95;;;;;;;28.26;32.05;101219.88;4989377;28;20490;-63
2023/06/13 10:01:19;;;;;;;5.57;3.67;;;;;;;28.28;31.30;101213.53;4989219;28;20080;-63
2023/06/13 10:03:45;;;;;;;4.03;3.72;;;;;;;28.48;31.51;101222.63;4989065;28;20033;-63
2023/06/13 10:06:11;;;;;;;5.30;4.05;;;;;;;28.48;30.98;101213.75;4989274;28;20022;-63
2023/06/13 10:08:38;;;;;;;5.05;4.03;;;;;;;28.60;30.90;101215.97;4988891;28;20026;-63
2023/06/13 10:11:10;;;;;;;5.05;3.63;;;;;;;28.60;30.14;101202.66;4989116;28;20563;-63
2023/06/13 10:13:46;;;;;;;4.63;3.78;;;;;;;28.56;30.87;101216.13;4989140;28;20401;-63
2023/06/13 10:16:13;;;;;;;5.75;3.75;;;;;;;28.60;29.86;101212.44;4988882;28;20125;-63
2023/06/13 10:18:42;;;;;;;5.28;3.75;;;;;;;28.56;30.15;101213.47;4989144;28;20080;-64
2023/06/13 10:21:11;;;;;;;4.40;3.50;;;;;;;28.53;29.95;101207.31;4989284;28;20038;-64
2023/06/13 10:23:43;;;;;;;6.13;3.65;;;;;;;28.61;30.09;101211.50;4989194;28;20023;-63
2023/06/13 10:26:12;;;;;;;4.20;3.80;;;;;;;28.63;29.77;101210.50;4991050;28;20034;-63
2023/06/13 10:28:50;;;;;;;4.63;4.22;;;;;;;28.83;30.34;101214.19;4993405;28;20188;-63
2023/06/13 10:31:40;;;;;;;4.65;3.75;;;;;;;28.96;30.09;101213.69;4993235;28;20026;-63
2023/06/13 10:34:34;;;;;;;5.10;3.75;;;;;;;28.96;28.22;101209.22;4992743;28;20058;-62
2023/06/13 10:37:09;;;;;;;5.22;3.03;;;;;;;28.97;28.11;101210.97;4992997;28;20050;-63
2023/06/13 10:40:04;;;;;;;4.60;3.55;;;;;;;29.16;28.78;101206.72;4993010;28;20053;-63
2023/06/13 10:43:01;;;;;;;3.90;3.60;;;;;;;29.15;27.33;101210.31;4993024;28;20030;-63
2023/06/13 10:45:29;;;;;;;4.93;3.60;;;;;;;29.21;26.85;101207.41;4979638;28;20054;-63
2023/06/13 10:47:58;;;;;;;3.50;3.20;;;;;;;29.20;26.78;101201.19;4993017;28;20033;-63
2023/06/13 10:50:24;;;;;;;5.38;3.70;;;;;;;29.25;28.24;101204.53;4992262;28;20534;-63
2023/06/13 10:52:54;;;;;;;4.78;3.58;;;;;;;29.27;28.01;101208.94;4992890;28;20165;-62
2023/06/13 10:55:27;;;;;;;5.97;4.25;;;;;;;29.29;28.78;101210.59;4992725;28;20045;-63
2023/06/13 10:57:56;;;;;;;5.03;3.70;;;;;;;29.44;28.65;101206.44;4992354;28;20066;-63
2023/06/13 11:00:30;;;;;;;4.10;3.65;;;;;;;29.63;28.34;101205.66;4991980;28;20175;-63
2023/06/13 11:03:00;;;;;;;5.15;3.60;;;;;;;29.33;27.43;101206.00;4992599;28;20414;-63
2023/06/13 11:05:26;;;;;;;3.30;3.00;;;;;;;29.22;27.80;101202.00;4992373;28;20019;-63
2023/06/13 11:07:55;;;;;;;4.03;3.63;;;;;;;29.14;26.30;101201.47;4992547;28;20126;-63
2023/06/13 11:10:23;;;;;;;6.35;3.55;;;;;;;29.15;26.77;101196.97;4992213;28;20045;-62
2023/06/13 11:12:49;;;;;;;4.65;3.95;;;;;;;29.28;27.33;101198.22;4992217;28;20081;-62
2023/06/13 11:15:23;;;;;;;8.05;4.03;;;;;;;29.24;28.22;101181.47;4992019;28;20061;-63
2023/06/13 11:18:07;;;;;;;4.10;3.65;;;;;;;29.21;28.22;101192.28;4992381;28;20033;-63
2023/06/13 11:20:33;;;;;;;6.13;3.72;;;;;;;29.13;27.00;101199.69;4991608;28;20030;-63
2023/06/13 11:22:58;;;;;;;4.15;3.75;;;;;;;29.13;27.07;101189.03;4992019;28;20034;-62
2023/06/13 11:25:24;;;;;;;5.80;3.58;;;;;;;29.02;26.40;101191.28;4991873;28;20030;-63